createdAt,value
2018-08-19T00:01:10.977Z,51.60
2018-08-19T00:03:39.407Z,51.60
2018-08-19T00:06:07.821Z,51.70
2018-08-19T00:08:36.238Z,51.70
2018-08-19T00:11:06.505Z,51.70
2018-08-19T00:13:35.930Z,51.70
2018-08-19T00:16:04.406Z,51.70
2018-08-19T00:18:34.580Z,51.80
2018-08-19T00:21:03.553Z,51.80
2018-08-19T00:23:37.665Z,51.80
2018-08-19T00:26:06.047Z,51.80
2018-08-19T00:28:34.431Z,51.90
2018-08-19T00:31:04.976Z,51.90
2018-08-19T00:33:33.595Z,51.90
2018-08-19T00:36:07.197Z,52.00
2018-08-19T00:38:35.605Z,52.00
2018-08-19T00:41:04.012Z,52.10
2018-08-19T00:43:32.448Z,52.10
2018-08-19T00:46:10.868Z,52.20
2018-08-19T00:48:39.425Z,52.20
2018-08-19T00:51:07.852Z,52.20
2018-08-19T00:53:36.312Z,52.20
2018-08-19T00:56:04.767Z,52.20
2018-08-19T00:58:33.211Z,52.30
2018-08-19T01:01:01.630Z,52.30
2018-08-19T01:03:35.369Z,52.40
2018-08-19T01:06:03.787Z,52.40
2018-08-19T01:08:32.209Z,52.40
2018-08-19T01:11:00.668Z,52.50
2018-08-19T01:13:29.104Z,52.60
2018-08-19T01:15:57.510Z,52.50
2018-08-19T01:18:25.972Z,52.50
2018-08-19T01:21:04.944Z,52.60
2018-08-19T01:23:33.359Z,52.60
2018-08-19T01:26:01.809Z,52.60
2018-08-19T01:28:30.308Z,52.60
2018-08-19T01:30:58.731Z,52.60
2018-08-19T01:33:27.174Z,52.60
2018-08-19T01:35:55.595Z,52.70
2018-08-19T01:38:24.277Z,52.70
2018-08-19T01:40:52.707Z,52.70
2018-08-19T01:43:21.123Z,52.70
2018-08-19T01:45:49.606Z,52.80
2018-08-19T01:48:18.017Z,52.70
2018-08-19T01:50:46.436Z,52.80
2018-08-19T01:53:14.846Z,52.80
2018-08-19T01:55:43.260Z,52.80
2018-08-19T01:58:11.674Z,52.80
2018-08-19T02:00:40.152Z,52.90
2018-08-19T02:03:08.637Z,52.90
2018-08-19T02:05:37.052Z,52.90
2018-08-19T02:08:05.608Z,52.80
2018-08-19T02:10:34.688Z,52.80
2018-08-19T02:13:03.353Z,52.90
2018-08-19T02:15:32.513Z,52.90
2018-08-19T02:18:07.375Z,52.80
2018-08-19T02:20:39.675Z,52.90
2018-08-19T02:23:09.475Z,52.90
2018-08-19T02:25:46.694Z,52.90
2018-08-19T02:28:19.423Z,53.00
2018-08-19T02:30:53.393Z,52.90
2018-08-19T02:33:22.852Z,52.90
2018-08-19T02:35:57.251Z,52.90
2018-08-19T02:38:25.895Z,52.90
2018-08-19T02:40:54.560Z,52.90
2018-08-19T02:43:23.387Z,52.90
2018-08-19T02:45:51.834Z,53.00
2018-08-19T02:48:34.533Z,53.00
2018-08-19T02:51:02.962Z,53.00
2018-08-19T02:53:31.379Z,53.60
2018-08-19T02:55:59.792Z,52.90
2018-08-19T02:58:28.239Z,52.90
2018-08-19T03:00:56.662Z,53.00
2018-08-19T03:03:25.116Z,52.90
2018-08-19T03:05:56.780Z,53.00
2018-08-19T03:08:25.211Z,52.90
2018-08-19T03:10:53.671Z,53.10
2018-08-19T03:13:22.159Z,53.20
2018-08-19T03:15:52.391Z,53.20
2018-08-19T03:18:20.859Z,53.40
2018-08-19T03:20:49.412Z,53.30
2018-08-19T03:23:17.895Z,53.20
2018-08-19T03:25:46.366Z,53.20
2018-08-19T03:28:14.756Z,53.20
2018-08-19T03:30:53.469Z,53.10
2018-08-19T03:33:21.901Z,53.10
2018-08-19T03:35:50.331Z,53.20
2018-08-19T03:38:18.763Z,53.20
2018-08-19T03:40:47.268Z,53.20
2018-08-19T03:43:15.694Z,53.20
2018-08-19T03:45:44.139Z,53.20
2018-08-19T03:48:12.551Z,53.30
2018-08-19T03:50:40.965Z,53.30
2018-08-19T03:53:09.429Z,53.40
2018-08-19T03:55:37.977Z,53.30
2018-08-19T03:58:08.581Z,53.30
2018-08-19T04:00:39.248Z,53.60
2018-08-19T04:03:14.507Z,53.40
2018-08-19T04:05:49.501Z,53.80
2018-08-19T04:08:17.931Z,53.60
2018-08-19T04:10:47.234Z,53.60
2018-08-19T04:13:27.195Z,53.80
2018-08-19T04:15:57.937Z,53.70
2018-08-19T04:18:30.294Z,53.70
2018-08-19T04:20:59.689Z,53.80
2018-08-19T04:23:28.565Z,53.90
2018-08-19T04:25:57.035Z,53.80
2018-08-19T04:28:25.527Z,53.80
2018-08-19T04:30:55.295Z,53.80
2018-08-19T04:33:29.306Z,53.80
2018-08-19T04:35:57.739Z,53.80
2018-08-19T04:38:27.565Z,53.80
2018-08-19T04:40:56.208Z,53.80
2018-08-19T04:43:26.479Z,53.80
2018-08-19T04:45:54.960Z,53.80
2018-08-19T04:48:24.143Z,54.00
2018-08-19T04:50:53.309Z,53.90
2018-08-19T04:53:21.936Z,53.90
2018-08-19T04:55:50.652Z,53.90
2018-08-19T04:58:19.060Z,53.90
2018-08-19T05:00:47.433Z,54.00
2018-08-19T05:03:15.822Z,54.10
2018-08-19T05:05:44.202Z,54.00
2018-08-19T05:08:13.006Z,54.10
2018-08-19T05:10:41.961Z,54.10
2018-08-19T05:13:10.975Z,54.00
2018-08-19T05:15:41.175Z,54.00
2018-08-19T05:18:09.777Z,54.10
2018-08-19T05:20:38.388Z,54.10
2018-08-19T05:23:07.238Z,54.10
2018-08-19T05:25:43.698Z,54.10
2018-08-19T05:28:12.232Z,54.10
2018-08-19T05:30:40.658Z,54.10
2018-08-19T05:33:10.853Z,54.10
2018-08-19T05:35:39.342Z,54.10
2018-08-19T05:38:07.874Z,54.40
2018-08-19T05:40:36.296Z,54.40
2018-08-19T05:43:04.833Z,54.40
2018-08-19T05:45:34.944Z,54.40
2018-08-19T05:48:09.168Z,54.50
2018-08-19T05:50:37.824Z,54.50
2018-08-19T05:53:06.283Z,54.50
2018-08-19T05:55:34.784Z,54.50
2018-08-19T05:58:03.180Z,54.60
2018-08-19T06:00:32.151Z,54.50
2018-08-19T06:03:02.394Z,54.60
2018-08-19T06:05:30.980Z,54.70
2018-08-19T06:08:05.893Z,54.80
2018-08-19T06:10:36.191Z,55.20
2018-08-19T06:13:04.642Z,55.20
2018-08-19T06:15:33.148Z,55.40
2018-08-19T06:18:01.577Z,55.60
2018-08-19T06:20:30.981Z,55.60
2018-08-19T06:22:59.483Z,55.70
2018-08-19T06:25:27.957Z,55.70
2018-08-19T06:27:57.192Z,55.80
2018-08-19T06:30:25.637Z,55.90
2018-08-19T06:32:54.089Z,55.80
2018-08-19T06:35:22.646Z,55.70
2018-08-19T06:37:51.167Z,56.00
2018-08-19T06:40:22.968Z,56.00
2018-08-19T06:42:51.400Z,56.10
2018-08-19T06:45:21.133Z,56.10
2018-08-19T06:47:49.591Z,56.20
2018-08-19T06:50:24.896Z,56.20
2018-08-19T06:52:53.759Z,56.30
2018-08-19T06:55:22.412Z,56.60
2018-08-19T06:57:50.937Z,56.70
2018-08-19T07:00:26.570Z,56.50
2018-08-19T07:02:55.992Z,56.40
2018-08-19T07:05:24.422Z,56.20
2018-08-19T07:07:52.885Z,56.30
2018-08-19T07:10:28.152Z,55.90
2018-08-19T07:13:13.109Z,55.60
2018-08-19T07:15:42.514Z,55.10
2018-08-19T07:18:13.512Z,54.80
2018-08-19T07:20:42.684Z,54.40
2018-08-19T07:23:11.585Z,54.40
2018-08-19T07:25:42.136Z,54.60
2018-08-19T07:28:11.574Z,54.40
2018-08-19T07:30:40.360Z,54.60
2018-08-19T07:33:08.907Z,54.80
2018-08-19T07:35:37.547Z,55.50
2018-08-19T07:38:06.067Z,55.10
2018-08-19T07:40:34.506Z,55.40
2018-08-19T07:43:03.144Z,55.40
2018-08-19T07:45:31.823Z,55.30
2018-08-19T07:48:00.283Z,55.40
2018-08-19T07:50:28.749Z,55.30
2018-08-19T07:52:57.227Z,55.30
2018-08-19T07:55:25.677Z,55.10
2018-08-19T07:57:54.126Z,55.00
2018-08-19T08:00:27.995Z,55.00
2018-08-19T08:02:56.404Z,55.20
2018-08-19T08:05:26.719Z,55.40
2018-08-19T08:07:55.163Z,55.70
2018-08-19T08:10:23.601Z,56.00
2018-08-19T08:13:24.917Z,55.70
2018-08-19T08:15:54.224Z,55.80
2018-08-19T08:18:22.784Z,55.90
2018-08-19T08:21:25.779Z,56.30
2018-08-19T08:23:54.118Z,56.20
2018-08-19T08:26:22.541Z,56.10
2018-08-19T08:28:56.178Z,55.90
2018-08-19T08:31:25.558Z,55.90
2018-08-19T08:33:53.978Z,55.70
2018-08-19T08:36:22.449Z,55.70
2018-08-19T08:38:50.818Z,55.40
2018-08-19T08:41:19.245Z,55.50
2018-08-19T08:43:47.678Z,55.40
2018-08-19T08:46:16.312Z,55.10
2018-08-19T08:48:45.102Z,55.20
2018-08-19T08:51:13.567Z,55.40
2018-08-19T08:53:44.351Z,55.50
2018-08-19T08:56:13.168Z,55.00
2018-08-19T08:58:41.591Z,55.20
2018-08-19T09:01:09.994Z,55.00
2018-08-19T09:03:38.321Z,55.00
2018-08-19T09:06:15.545Z,54.70
2018-08-19T09:08:43.884Z,54.70
2018-08-19T09:11:12.341Z,54.70
2018-08-19T09:13:40.692Z,54.90
2018-08-19T09:16:09.056Z,55.20
2018-08-19T09:18:37.380Z,55.30
2018-08-19T09:21:05.740Z,55.50
2018-08-19T09:23:34.150Z,55.20
2018-08-19T09:26:02.605Z,55.10
2018-08-19T09:28:31.037Z,55.30
2018-08-19T09:30:59.475Z,55.00
2018-08-19T09:33:27.991Z,54.70
2018-08-19T09:35:56.451Z,55.10
2018-08-19T09:38:24.856Z,54.80
2018-08-19T09:40:53.392Z,54.80
2018-08-19T09:43:21.789Z,54.70
2018-08-19T09:45:50.230Z,54.60
2018-08-19T09:48:19.106Z,54.80
2018-08-19T09:50:47.580Z,54.60
2018-08-19T09:53:15.992Z,54.30
2018-08-19T09:55:46.824Z,54.30
2018-08-19T09:58:20.215Z,54.20
2018-08-19T10:00:53.872Z,54.00
2018-08-19T10:03:22.301Z,54.00
2018-08-19T10:05:50.707Z,54.00
2018-08-19T10:08:21.742Z,54.20
2018-08-19T10:10:50.473Z,54.40
2018-08-19T10:13:18.868Z,54.30
2018-08-19T10:15:47.295Z,54.30
2018-08-19T10:18:15.693Z,54.50
2018-08-19T10:20:44.090Z,54.40
2018-08-19T10:23:12.509Z,54.40
2018-08-19T10:25:40.992Z,54.20
2018-08-19T10:28:09.414Z,54.80
2018-08-19T10:30:44.789Z,54.60
2018-08-19T10:33:13.398Z,55.30
2018-08-19T10:35:41.792Z,54.90
2018-08-19T10:38:10.231Z,55.50
2018-08-19T10:40:38.617Z,55.60
2018-08-19T10:43:08.242Z,55.60
2018-08-19T10:45:37.267Z,55.70
2018-08-19T10:48:07.212Z,55.70
2018-08-19T10:50:45.918Z,55.70
2018-08-19T10:53:19.672Z,55.50
2018-08-19T10:55:48.038Z,55.50
2018-08-19T10:58:16.425Z,56.10
2018-08-19T11:00:44.802Z,55.80
2018-08-19T11:03:18.269Z,54.90
2018-08-19T11:05:48.332Z,54.90
2018-08-19T11:08:16.674Z,54.80
2018-08-19T11:10:45.120Z,54.70
2018-08-19T11:13:17.270Z,54.70
2018-08-19T11:15:50.996Z,55.00
2018-08-19T11:18:31.902Z,54.70
2018-08-19T11:21:07.642Z,54.60
2018-08-19T11:23:36.787Z,55.30
2018-08-19T11:26:05.531Z,54.80
2018-08-19T11:28:36.169Z,54.50
2018-08-19T11:31:04.581Z,54.50
2018-08-19T11:33:40.506Z,54.50
2018-08-19T11:36:09.695Z,54.10
2018-08-19T11:38:38.549Z,54.10
2018-08-19T11:41:08.397Z,54.00
2018-08-19T11:43:41.157Z,53.70
2018-08-19T11:46:09.837Z,53.70
2018-08-19T11:48:39.023Z,53.30
2018-08-19T11:51:07.469Z,53.60
2018-08-19T11:53:36.094Z,53.80
2018-08-19T11:56:04.529Z,54.30
2018-08-19T11:58:45.917Z,53.60
2018-08-19T12:01:15.966Z,53.70
2018-08-19T12:03:57.832Z,53.50
2018-08-19T12:06:27.346Z,53.60
2018-08-19T12:08:57.286Z,53.50
2018-08-19T12:11:31.885Z,53.40
2018-08-19T12:14:02.193Z,53.30
2018-08-19T12:16:30.656Z,53.40
2018-08-19T12:19:05.442Z,52.80
2018-08-19T12:21:38.010Z,53.40
2018-08-19T12:24:23.799Z,53.20
2018-08-19T12:26:54.441Z,52.90
2018-08-19T12:29:24.134Z,53.60
2018-08-19T12:31:57.569Z,53.20
2018-08-19T12:34:26.221Z,53.60
2018-08-19T12:36:54.568Z,53.10
2018-08-19T12:39:22.928Z,53.20
2018-08-19T12:41:54.366Z,53.20
2018-08-19T12:44:22.787Z,53.30
2018-08-19T12:47:03.304Z,53.00
2018-08-19T12:49:34.832Z,53.40
2018-08-19T12:52:03.344Z,53.80
2018-08-19T12:54:31.740Z,54.10
2018-08-19T12:57:00.136Z,54.20
2018-08-19T12:59:28.653Z,54.40
2018-08-19T13:01:56.984Z,54.40
2018-08-19T13:04:25.981Z,54.50
2018-08-19T13:07:01.524Z,54.40
2018-08-19T13:09:30.700Z,54.50
2018-08-19T13:12:04.404Z,54.30
2018-08-19T13:14:33.074Z,54.40
2018-08-19T13:17:01.551Z,54.20
2018-08-19T13:19:30.533Z,54.10
2018-08-19T13:21:59.388Z,54.30
2018-08-19T13:24:33.198Z,54.30
2018-08-19T13:27:01.970Z,54.40
2018-08-19T13:29:30.789Z,54.60
2018-08-19T13:31:59.379Z,54.10
2018-08-19T13:34:28.595Z,53.80
2018-08-19T13:36:57.698Z,54.00
2018-08-19T13:39:26.795Z,53.70
2018-08-19T13:41:55.277Z,53.10
2018-08-19T13:44:23.685Z,52.50
2018-08-19T13:46:52.128Z,52.20
2018-08-19T13:49:23.383Z,52.10
2018-08-19T13:51:52.269Z,51.90
2018-08-19T13:54:21.623Z,51.60
2018-08-19T13:56:50.055Z,51.60
2018-08-19T13:59:18.552Z,51.50
2018-08-19T14:01:47.357Z,51.80
2018-08-19T14:04:16.051Z,51.70
2018-08-19T14:06:45.752Z,51.50
2018-08-19T14:09:14.739Z,51.60
2018-08-19T14:11:43.207Z,52.40
2018-08-19T14:14:12.004Z,52.40
2018-08-19T14:16:40.642Z,52.70
2018-08-19T14:19:09.092Z,52.00
2018-08-19T14:21:37.504Z,51.60
2018-08-19T14:24:05.931Z,52.00
2018-08-19T14:26:34.447Z,51.30
2018-08-19T14:29:02.856Z,50.60
2018-08-19T14:31:31.548Z,50.40
2018-08-19T14:33:59.983Z,50.50
2018-08-19T14:36:28.475Z,50.90
2018-08-19T14:38:56.995Z,50.70
2018-08-19T14:41:25.513Z,50.50
2018-08-19T14:43:59.909Z,51.30
2018-08-19T14:46:29.355Z,51.30
2018-08-19T14:48:59.920Z,51.20
2018-08-19T14:51:29.987Z,51.00
2018-08-19T14:54:14.198Z,50.80
2018-08-19T14:56:42.840Z,50.60
2018-08-19T14:59:11.969Z,50.90
2018-08-19T15:01:40.451Z,50.70
2018-08-19T15:04:12.496Z,51.30
2018-08-19T15:06:43.104Z,50.60
2018-08-19T15:09:22.893Z,50.00
2018-08-19T15:11:51.976Z,49.60
2018-08-19T15:14:21.181Z,49.40
2018-08-19T15:16:50.921Z,49.20
2018-08-19T15:19:19.367Z,49.70
2018-08-19T15:21:52.841Z,49.30
2018-08-19T15:24:21.257Z,49.30
2018-08-19T15:26:49.603Z,49.20
2018-08-19T15:29:23.400Z,49.40
2018-08-19T15:31:51.891Z,49.40
2018-08-19T15:34:20.678Z,49.40
2018-08-19T15:36:49.940Z,49.50
2018-08-19T15:39:18.384Z,49.40
2018-08-19T15:41:47.305Z,49.20
2018-08-19T15:44:15.697Z,49.20
2018-08-19T15:46:44.974Z,49.90
2018-08-19T15:49:13.356Z,49.50
2018-08-19T15:51:41.778Z,49.80
2018-08-19T15:54:10.761Z,49.50
2018-08-19T15:56:39.105Z,49.80
2018-08-19T15:59:08.920Z,50.10
2018-08-19T16:01:37.757Z,50.00
2018-08-19T16:04:12.914Z,49.90
2018-08-19T16:06:42.180Z,50.20
2018-08-19T16:09:15.288Z,50.30
2018-08-19T16:11:44.106Z,51.00
2018-08-19T16:14:17.830Z,51.00
2018-08-19T16:16:46.687Z,51.40
2018-08-19T16:19:15.029Z,51.50
2018-08-19T16:21:45.799Z,51.50
2018-08-19T16:24:14.183Z,51.60
2018-08-19T16:26:42.862Z,51.70
2018-08-19T16:29:11.243Z,51.90
2018-08-19T16:31:39.624Z,51.90
2018-08-19T16:34:09.394Z,51.60
2018-08-19T16:36:37.750Z,51.60
2018-08-19T16:39:09.958Z,51.70
2018-08-19T16:41:38.407Z,51.70
2018-08-19T16:44:07.051Z,51.90
2018-08-19T16:46:35.389Z,52.00
2018-08-19T16:49:03.932Z,52.20
2018-08-19T16:51:32.412Z,52.20
2018-08-19T16:54:01.092Z,52.10
2018-08-19T16:56:29.497Z,52.30
2018-08-19T16:58:57.979Z,52.30
2018-08-19T17:01:26.344Z,52.40
2018-08-19T17:03:54.732Z,52.50
2018-08-19T17:06:23.080Z,52.60
2018-08-19T17:08:51.431Z,52.70
2018-08-19T17:11:19.810Z,52.70
2018-08-19T17:13:48.139Z,52.60
2018-08-19T17:16:16.499Z,52.60
2018-08-19T17:18:44.853Z,52.80
2018-08-19T17:21:16.361Z,52.60
2018-08-19T17:23:48.652Z,52.90
2018-08-19T17:26:21.104Z,52.70
2018-08-19T17:28:49.493Z,53.00
2018-08-19T17:31:17.972Z,53.10
2018-08-19T17:33:46.340Z,53.60
2018-08-19T17:36:26.802Z,53.00
2018-08-19T17:38:55.205Z,53.80
2018-08-19T17:41:23.635Z,53.50
2018-08-19T17:43:51.980Z,53.60
2018-08-19T17:46:20.441Z,53.60
2018-08-19T17:48:48.816Z,53.90
2018-08-19T17:51:28.871Z,53.90
2018-08-19T17:53:57.513Z,53.60
2018-08-19T17:56:25.935Z,53.80
2018-08-19T17:58:54.448Z,54.40
2018-08-19T18:01:23.274Z,53.60
2018-08-19T18:03:51.635Z,53.70
2018-08-19T18:06:20.022Z,53.50
2018-08-19T18:08:53.944Z,53.70
2018-08-19T18:11:22.615Z,54.70
2018-08-19T18:13:50.970Z,54.70
2018-08-19T18:16:19.285Z,54.80
2018-08-19T18:18:48.368Z,55.10
2018-08-19T18:21:16.694Z,55.00
2018-08-19T18:23:46.771Z,55.20
2018-08-19T18:26:15.349Z,55.30
2018-08-19T18:28:45.455Z,56.20
2018-08-19T18:31:14.029Z,55.70
2018-08-19T18:33:52.750Z,55.90
2018-08-19T18:36:22.354Z,55.30
2018-08-19T18:38:50.876Z,55.60
2018-08-19T18:41:25.804Z,55.70
2018-08-19T18:43:57.552Z,55.70
2018-08-19T18:46:26.349Z,55.90
2018-08-19T18:49:14.454Z,56.10
2018-08-19T18:51:46.205Z,56.10
2018-08-19T18:54:22.845Z,56.30
2018-08-19T18:56:51.229Z,56.50
2018-08-19T18:59:19.577Z,56.50
2018-08-19T19:01:47.938Z,56.50
2018-08-19T19:04:16.332Z,56.60
2018-08-19T19:06:44.698Z,56.80
2018-08-19T19:09:13.053Z,57.00
2018-08-19T19:11:41.400Z,56.70
2018-08-19T19:14:19.975Z,56.70
2018-08-19T19:16:49.099Z,56.60
2018-08-19T19:19:17.501Z,56.60
2018-08-19T19:22:04.561Z,56.60
2018-08-19T19:24:38.959Z,56.70
2018-08-19T19:27:07.912Z,56.70
2018-08-19T19:29:36.254Z,56.80
2018-08-19T19:32:15.760Z,56.70
2018-08-19T19:34:44.113Z,56.90
2018-08-19T19:37:12.632Z,57.00
2018-08-19T19:39:40.991Z,56.80
2018-08-19T19:42:10.249Z,56.80
2018-08-19T19:44:38.597Z,56.60
2018-08-19T19:47:08.260Z,56.60
2018-08-19T19:49:48.273Z,56.80
2018-08-19T19:52:16.817Z,56.70
2018-08-19T19:54:45.450Z,56.80
2018-08-19T19:57:13.989Z,56.80
2018-08-19T19:59:42.375Z,56.80
2018-08-19T20:02:16.887Z,56.60
2018-08-19T20:04:49.001Z,56.40
2018-08-19T20:07:17.366Z,56.50
2018-08-19T20:09:45.782Z,56.50
2018-08-19T20:12:19.612Z,56.30
2018-08-19T20:14:51.348Z,56.30
2018-08-19T20:17:20.665Z,56.10
2018-08-19T20:19:49.141Z,56.00
2018-08-19T20:22:18.745Z,55.90
2018-08-19T20:24:50.672Z,55.80
2018-08-19T20:27:19.009Z,55.50
2018-08-19T20:29:51.472Z,55.20
2018-08-19T20:32:19.872Z,55.40
2018-08-19T20:34:48.300Z,55.50
2018-08-19T20:37:20.356Z,55.40
2018-08-19T20:39:48.879Z,55.30
2018-08-19T20:42:17.277Z,55.30
2018-08-19T20:44:45.625Z,55.20
2018-08-19T20:47:13.987Z,55.20
2018-08-19T20:49:42.364Z,55.30
2018-08-19T20:52:10.805Z,55.00
2018-08-19T20:54:39.162Z,55.20
2018-08-19T20:57:07.601Z,54.80
2018-08-19T20:59:37.341Z,55.00
2018-08-19T21:02:07.127Z,55.20
2018-08-19T21:04:35.498Z,55.40
2018-08-19T21:07:05.034Z,56.20
2018-08-19T21:09:35.125Z,55.70
2018-08-19T21:12:03.663Z,55.70
2018-08-19T21:14:32.108Z,56.00
2018-08-19T21:17:02.860Z,56.10
2018-08-19T21:19:31.204Z,56.20
2018-08-19T21:21:59.548Z,56.40
2018-08-19T21:24:32.000Z,56.30
2018-08-19T21:27:01.361Z,56.40
2018-08-19T21:29:30.580Z,56.30
2018-08-19T21:31:58.943Z,56.60
2018-08-19T21:34:27.511Z,56.50
2018-08-19T21:36:55.962Z,56.60
2018-08-19T21:39:24.358Z,56.70
2018-08-19T21:41:54.071Z,56.70
2018-08-19T21:44:22.377Z,56.70
2018-08-19T21:46:50.734Z,56.70
2018-08-19T21:49:19.065Z,56.90
2018-08-19T21:51:47.407Z,56.80
2018-08-19T21:54:16.792Z,56.80
2018-08-19T21:56:45.168Z,56.80
2018-08-19T21:59:21.902Z,57.20
2018-08-19T22:01:51.106Z,56.80
2018-08-19T22:04:20.868Z,56.80
2018-08-19T22:06:49.668Z,56.90
2018-08-19T22:09:50.405Z,57.00
2018-08-19T22:12:18.769Z,57.00
2018-08-19T22:14:47.103Z,57.60
2018-08-19T22:17:15.491Z,57.00
2018-08-19T22:19:43.862Z,57.00
2018-08-19T22:22:12.232Z,57.00
2018-08-19T22:24:40.730Z,57.10
2018-08-19T22:27:17.181Z,57.20
2018-08-19T22:29:45.635Z,57.10
2018-08-19T22:32:14.003Z,57.20
2018-08-19T22:34:42.399Z,57.20
2018-08-19T22:37:10.772Z,57.10
2018-08-19T22:39:39.234Z,57.30
2018-08-19T22:42:07.572Z,57.30
2018-08-19T22:44:35.984Z,57.20
2018-08-19T22:47:04.292Z,57.30
2018-08-19T22:49:32.740Z,57.40
2018-08-19T22:52:34.197Z,57.40
2018-08-19T22:55:02.516Z,57.40
2018-08-19T22:57:30.846Z,57.40
2018-08-19T22:59:59.186Z,57.40
2018-08-19T23:02:27.526Z,57.50
2018-08-19T23:04:55.841Z,57.60
2018-08-19T23:07:24.190Z,57.60
2018-08-19T23:09:52.873Z,57.60
2018-08-19T23:12:21.301Z,57.70
2018-08-19T23:15:01.287Z,57.60
2018-08-19T23:17:29.704Z,57.70
2018-08-19T23:19:58.149Z,57.70
2018-08-19T23:22:26.570Z,57.80
2018-08-19T23:24:54.990Z,57.80
2018-08-19T23:27:23.391Z,57.70
2018-08-19T23:29:51.800Z,57.80
2018-08-19T23:32:20.211Z,57.80
2018-08-19T23:34:48.613Z,57.90
2018-08-19T23:37:17.082Z,58.00
2018-08-19T23:39:45.499Z,58.10
2018-08-19T23:42:13.917Z,58.10
2018-08-19T23:44:42.349Z,58.20
2018-08-19T23:47:10.745Z,58.20
2018-08-19T23:49:39.152Z,58.20
2018-08-19T23:52:07.597Z,58.30
2018-08-19T23:54:35.999Z,58.30
2018-08-19T23:57:04.403Z,58.30
2018-08-19T23:59:35.699Z,58.40
